sensor_id;sensor_type;location;lat;lon;timestamp;P1;durP1;ratioP1;P2;durP2;ratioP2
76423;SDS011;65257;52.104;4.268;2022-11-20T00:01:31;12.18;;;6.47;;
76423;SDS011;65257;52.104;4.268;2022-11-20T00:04:00;11.50;;;6.18;;
76423;SDS011;65257;52.104;4.268;2022-11-20T00:06:26;15.52;;;6.40;;
76423;SDS011;65257;52.104;4.268;2022-11-20T00:08:54;12.98;;;6.18;;
76423;SDS011;65257;52.104;4.268;2022-11-20T00:11:22;17.23;;;7.22;;
76423;SDS011;65257;52.104;4.268;2022-11-20T00:13:49;13.45;;;6.55;;
76423;SDS011;65257;52.104;4.268;2022-11-20T00:16:17;14.93;;;5.90;;
76423;SDS011;65257;52.104;4.268;2022-11-20T00:18:48;11.38;;;5.75;;
76423;SDS011;65257;52.104;4.268;2022-11-20T00:21:15;13.18;;;5.75;;
76423;SDS011;65257;52.104;4.268;2022-11-20T00:23:46;16.48;;;6.40;;
76423;SDS011;65257;52.104;4.268;2022-11-20T00:26:13;14.50;;;6.95;;
76423;SDS011;65257;52.104;4.268;2022-11-20T00:28:40;11.52;;;6.32;;
76423;SDS011;65257;52.104;4.268;2022-11-20T00:31:18;14.52;;;6.50;;
76423;SDS011;65257;52.104;4.268;2022-11-20T00:33:44;12.70;;;6.53;;
76423;SDS011;65257;52.104;4.268;2022-11-20T00:36:11;16.17;;;6.28;;
76423;SDS011;65257;52.104;4.268;2022-11-20T00:38:38;13.07;;;6.97;;
76423;SDS011;65257;52.104;4.268;2022-11-20T00:41:05;13.25;;;6.65;;
76423;SDS011;65257;52.104;4.268;2022-11-20T00:43:43;10.88;;;6.28;;
76423;SDS011;65257;52.104;4.268;2022-11-20T00:46:18;13.95;;;6.32;;
76423;SDS011;65257;52.104;4.268;2022-11-20T00:48:46;12.95;;;6.25;;
76423;SDS011;65257;52.104;4.268;2022-11-20T00:51:13;14.63;;;7.00;;
76423;SDS011;65257;52.104;4.268;2022-11-20T00:53:48;13.60;;;6.03;;
76423;SDS011;65257;52.104;4.268;2022-11-20T00:56:20;13.10;;;6.43;;
76423;SDS011;65257;52.104;4.268;2022-11-20T00:58:46;12.02;;;6.80;;
76423;SDS011;65257;52.104;4.268;2022-11-20T01:03:44;14.13;;;7.20;;
76423;SDS011;65257;52.104;4.268;2022-11-20T01:06:12;13.40;;;6.65;;
76423;SDS011;65257;52.104;4.268;2022-11-20T01:08:39;12.35;;;7.20;;
76423;SDS011;65257;52.104;4.268;2022-11-20T01:11:06;13.73;;;7.38;;
76423;SDS011;65257;52.104;4.268;2022-11-20T01:13:37;12.68;;;6.75;;
76423;SDS011;65257;52.104;4.268;2022-11-20T01:16:05;12.80;;;6.32;;
76423;SDS011;65257;52.104;4.268;2022-11-20T01:18:51;12.10;;;6.25;;
76423;SDS011;65257;52.104;4.268;2022-11-20T01:21:19;14.25;;;6.18;;
76423;SDS011;65257;52.104;4.268;2022-11-20T01:23:47;20.95;;;7.47;;
76423;SDS011;65257;52.104;4.268;2022-11-20T01:26:15;12.57;;;6.30;;
76423;SDS011;65257;52.104;4.268;2022-11-20T01:28:42;12.55;;;6.15;;
76423;SDS011;65257;52.104;4.268;2022-11-20T01:31:22;13.55;;;6.43;;
76423;SDS011;65257;52.104;4.268;2022-11-20T01:33:56;13.38;;;7.72;;
76423;SDS011;65257;52.104;4.268;2022-11-20T01:36:23;15.43;;;6.55;;
76423;SDS011;65257;52.104;4.268;2022-11-20T01:38:53;12.13;;;6.72;;
76423;SDS011;65257;52.104;4.268;2022-11-20T01:41:21;13.68;;;6.78;;
76423;SDS011;65257;52.104;4.268;2022-11-20T01:44:06;13.05;;;6.53;;
76423;SDS011;65257;52.104;4.268;2022-11-20T01:46:34;12.95;;;6.15;;
76423;SDS011;65257;52.104;4.268;2022-11-20T01:49:08;12.15;;;6.80;;
76423;SDS011;65257;52.104;4.268;2022-11-20T01:51:42;16.83;;;7.63;;
76423;SDS011;65257;52.104;4.268;2022-11-20T01:54:15;20.55;;;8.13;;
76423;SDS011;65257;52.104;4.268;2022-11-20T01:56:44;16.80;;;7.28;;
76423;SDS011;65257;52.104;4.268;2022-11-20T01:59:13;15.88;;;7.57;;
76423;SDS011;65257;52.104;4.268;2022-11-20T02:01:42;13.98;;;7.00;;
76423;SDS011;65257;52.104;4.268;2022-11-20T02:04:08;12.27;;;7.07;;
76423;SDS011;65257;52.104;4.268;2022-11-20T02:06:35;13.32;;;6.93;;
76423;SDS011;65257;52.104;4.268;2022-11-20T02:09:06;14.82;;;6.70;;
76423;SDS011;65257;52.104;4.268;2022-11-20T02:11:34;14.95;;;6.72;;
76423;SDS011;65257;52.104;4.268;2022-11-20T02:14:01;12.75;;;6.07;;
76423;SDS011;65257;52.104;4.268;2022-11-20T02:16:28;12.45;;;6.78;;
76423;SDS011;65257;52.104;4.268;2022-11-20T02:21:28;13.10;;;6.05;;
76423;SDS011;65257;52.104;4.268;2022-11-20T02:24:12;12.68;;;6.15;;
76423;SDS011;65257;52.104;4.268;2022-11-20T02:29:17;11.05;;;6.13;;
76423;SDS011;65257;52.104;4.268;2022-11-20T02:31:56;16.45;;;6.93;;
76423;SDS011;65257;52.104;4.268;2022-11-20T02:34:30;10.52;;;5.43;;
76423;SDS011;65257;52.104;4.268;2022-11-20T02:39:21;13.73;;;6.65;;
76423;SDS011;65257;52.104;4.268;2022-11-20T02:42:01;12.80;;;6.10;;
76423;SDS011;65257;52.104;4.268;2022-11-20T02:44:27;12.77;;;6.10;;
76423;SDS011;65257;52.104;4.268;2022-11-20T02:46:59;11.38;;;6.05;;
76423;SDS011;65257;52.104;4.268;2022-11-20T02:49:25;16.77;;;6.20;;
76423;SDS011;65257;52.104;4.268;2022-11-20T02:51:51;13.95;;;6.03;;
76423;SDS011;65257;52.104;4.268;2022-11-20T02:54:20;15.43;;;7.90;;
76423;SDS011;65257;52.104;4.268;2022-11-20T02:56:48;10.75;;;6.10;;
76423;SDS011;65257;52.104;4.268;2022-11-20T02:59:13;12.82;;;6.60;;
76423;SDS011;65257;52.104;4.268;2022-11-20T03:01:39;13.98;;;7.18;;
76423;SDS011;65257;52.104;4.268;2022-11-20T03:04:08;11.95;;;6.22;;
76423;SDS011;65257;52.104;4.268;2022-11-20T03:06:34;12.85;;;6.63;;
76423;SDS011;65257;52.104;4.268;2022-11-20T03:09:03;13.55;;;6.63;;
76423;SDS011;65257;52.104;4.268;2022-11-20T03:11:28;13.65;;;6.90;;
76423;SDS011;65257;52.104;4.268;2022-11-20T03:13:53;13.20;;;6.30;;
76423;SDS011;65257;52.104;4.268;2022-11-20T03:16:20;14.00;;;7.20;;
76423;SDS011;65257;52.104;4.268;2022-11-20T03:18:49;12.95;;;7.22;;
76423;SDS011;65257;52.104;4.268;2022-11-20T03:21:20;16.77;;;7.53;;
76423;SDS011;65257;52.104;4.268;2022-11-20T03:23:45;13.35;;;7.20;;
76423;SDS011;65257;52.104;4.268;2022-11-20T03:28:37;15.63;;;7.15;;
76423;SDS011;65257;52.104;4.268;2022-11-20T03:31:29;14.05;;;6.47;;
76423;SDS011;65257;52.104;4.268;2022-11-20T03:33:57;14.05;;;6.43;;
76423;SDS011;65257;52.104;4.268;2022-11-20T03:36:25;14.68;;;7.05;;
76423;SDS011;65257;52.104;4.268;2022-11-20T03:39:00;13.00;;;7.15;;
76423;SDS011;65257;52.104;4.268;2022-11-20T03:41:40;15.13;;;7.05;;
76423;SDS011;65257;52.104;4.268;2022-11-20T03:44:11;13.02;;;6.55;;
76423;SDS011;65257;52.104;4.268;2022-11-20T03:46:37;12.43;;;6.53;;
76423;SDS011;65257;52.104;4.268;2022-11-20T03:49:06;13.52;;;7.43;;
76423;SDS011;65257;52.104;4.268;2022-11-20T03:51:35;15.68;;;6.93;;
76423;SDS011;65257;52.104;4.268;2022-11-20T03:54:03;15.48;;;7.50;;
76423;SDS011;65257;52.104;4.268;2022-11-20T03:56:34;13.35;;;7.07;;
76423;SDS011;65257;52.104;4.268;2022-11-20T03:59:02;18.73;;;8.23;;
76423;SDS011;65257;52.104;4.268;2022-11-20T04:01:29;15.13;;;7.75;;
76423;SDS011;65257;52.104;4.268;2022-11-20T04:04:02;14.77;;;7.60;;
76423;SDS011;65257;52.104;4.268;2022-11-20T04:06:35;16.33;;;7.60;;
76423;SDS011;65257;52.104;4.268;2022-11-20T04:09:02;14.60;;;6.10;;
76423;SDS011;65257;52.104;4.268;2022-11-20T04:11:32;13.52;;;7.22;;
76423;SDS011;65257;52.104;4.268;2022-11-20T04:14:05;13.10;;;7.50;;
76423;SDS011;65257;52.104;4.268;2022-11-20T04:16:38;15.50;;;7.85;;
76423;SDS011;65257;52.104;4.268;2022-11-20T04:19:08;12.60;;;7.75;;
76423;SDS011;65257;52.104;4.268;2022-11-20T04:21:39;15.30;;;7.20;;
76423;SDS011;65257;52.104;4.268;2022-11-20T04:24:04;14.85;;;6.88;;
76423;SDS011;65257;52.104;4.268;2022-11-20T04:26:30;16.33;;;7.72;;
76423;SDS011;65257;52.104;4.268;2022-11-20T04:28:59;13.35;;;6.93;;
76423;SDS011;65257;52.104;4.268;2022-11-20T04:31:28;13.38;;;7.40;;
76423;SDS011;65257;52.104;4.268;2022-11-20T04:33:59;15.07;;;6.63;;
76423;SDS011;65257;52.104;4.268;2022-11-20T04:36:26;17.42;;;7.53;;
76423;SDS011;65257;52.104;4.268;2022-11-20T04:38:53;16.85;;;7.72;;
76423;SDS011;65257;52.104;4.268;2022-11-20T04:41:24;13.40;;;7.05;;
76423;SDS011;65257;52.104;4.268;2022-11-20T04:43:52;14.10;;;6.53;;
76423;SDS011;65257;52.104;4.268;2022-11-20T04:46:24;14.43;;;7.60;;
76423;SDS011;65257;52.104;4.268;2022-11-20T04:49:00;17.00;;;8.50;;
76423;SDS011;65257;52.104;4.268;2022-11-20T04:51:34;16.17;;;8.00;;
76423;SDS011;65257;52.104;4.268;2022-11-20T04:54:00;17.40;;;7.00;;
76423;SDS011;65257;52.104;4.268;2022-11-20T04:56:26;18.45;;;7.80;;
76423;SDS011;65257;52.104;4.268;2022-11-20T04:58:54;14.57;;;7.53;;
76423;SDS011;65257;52.104;4.268;2022-11-20T05:01:26;16.15;;;7.38;;
76423;SDS011;65257;52.104;4.268;2022-11-20T05:03:51;13.75;;;6.93;;
76423;SDS011;65257;52.104;4.268;2022-11-20T05:06:38;17.50;;;8.55;;
76423;SDS011;65257;52.104;4.268;2022-11-20T05:09:02;14.00;;;7.22;;
76423;SDS011;65257;52.104;4.268;2022-11-20T05:11:27;15.55;;;7.22;;
76423;SDS011;65257;52.104;4.268;2022-11-20T05:13:57;15.80;;;8.52;;
76423;SDS011;65257;52.104;4.268;2022-11-20T05:16:24;13.80;;;7.35;;
76423;SDS011;65257;52.104;4.268;2022-11-20T05:18:53;14.50;;;7.07;;
76423;SDS011;65257;52.104;4.268;2022-11-20T05:21:24;16.33;;;7.40;;
76423;SDS011;65257;52.104;4.268;2022-11-20T05:23:50;17.55;;;8.73;;
76423;SDS011;65257;52.104;4.268;2022-11-20T05:26:22;14.52;;;7.43;;
76423;SDS011;65257;52.104;4.268;2022-11-20T05:28:48;15.60;;;8.07;;
76423;SDS011;65257;52.104;4.268;2022-11-20T05:31:21;14.95;;;7.43;;
76423;SDS011;65257;52.104;4.268;2022-11-20T05:33:48;16.73;;;8.35;;
76423;SDS011;65257;52.104;4.268;2022-11-20T05:36:14;15.10;;;7.45;;
76423;SDS011;65257;52.104;4.268;2022-11-20T05:38:40;15.57;;;8.13;;
76423;SDS011;65257;52.104;4.268;2022-11-20T05:41:14;18.20;;;7.63;;
76423;SDS011;65257;52.104;4.268;2022-11-20T05:43:42;19.33;;;8.90;;
76423;SDS011;65257;52.104;4.268;2022-11-20T05:46:17;16.83;;;7.70;;
76423;SDS011;65257;52.104;4.268;2022-11-20T05:48:45;19.10;;;8.27;;
76423;SDS011;65257;52.104;4.268;2022-11-20T05:51:12;16.60;;;7.88;;
76423;SDS011;65257;52.104;4.268;2022-11-20T05:53:43;17.55;;;9.05;;
76423;SDS011;65257;52.104;4.268;2022-11-20T05:56:12;17.50;;;8.70;;
76423;SDS011;65257;52.104;4.268;2022-11-20T05:58:45;17.25;;;8.27;;
76423;SDS011;65257;52.104;4.268;2022-11-20T06:01:16;14.52;;;7.32;;
76423;SDS011;65257;52.104;4.268;2022-11-20T06:03:44;16.42;;;8.48;;
76423;SDS011;65257;52.104;4.268;2022-11-20T06:06:12;18.92;;;9.73;;
76423;SDS011;65257;52.104;4.268;2022-11-20T06:08:39;18.52;;;8.30;;
76423;SDS011;65257;52.104;4.268;2022-11-20T06:11:05;13.77;;;7.00;;
76423;SDS011;65257;52.104;4.268;2022-11-20T06:13:32;16.50;;;7.68;;
76423;SDS011;65257;52.104;4.268;2022-11-20T06:15:58;15.57;;;7.90;;
76423;SDS011;65257;52.104;4.268;2022-11-20T06:18:25;17.33;;;9.35;;
76423;SDS011;65257;52.104;4.268;2022-11-20T06:20:59;18.40;;;8.05;;
76423;SDS011;65257;52.104;4.268;2022-11-20T06:23:38;15.98;;;7.80;;
76423;SDS011;65257;52.104;4.268;2022-11-20T06:26:04;17.08;;;7.78;;
76423;SDS011;65257;52.104;4.268;2022-11-20T06:28:43;17.50;;;8.63;;
76423;SDS011;65257;52.104;4.268;2022-11-20T06:31:10;17.10;;;8.25;;
76423;SDS011;65257;52.104;4.268;2022-11-20T06:33:37;16.45;;;7.70;;
76423;SDS011;65257;52.104;4.268;2022-11-20T06:36:03;15.13;;;7.90;;
76423;SDS011;65257;52.104;4.268;2022-11-20T06:38:30;17.85;;;8.82;;
76423;SDS011;65257;52.104;4.268;2022-11-20T06:40:55;19.75;;;9.13;;
76423;SDS011;65257;52.104;4.268;2022-11-20T06:43:21;16.70;;;8.27;;
76423;SDS011;65257;52.104;4.268;2022-11-20T06:45:59;18.08;;;9.45;;
76423;SDS011;65257;52.104;4.268;2022-11-20T06:48:28;16.90;;;8.52;;
76423;SDS011;65257;52.104;4.268;2022-11-20T06:50:54;18.15;;;8.93;;
76423;SDS011;65257;52.104;4.268;2022-11-20T06:53:20;15.02;;;8.23;;
76423;SDS011;65257;52.104;4.268;2022-11-20T06:55:52;17.52;;;7.93;;
76423;SDS011;65257;52.104;4.268;2022-11-20T06:58:26;20.05;;;8.95;;
76423;SDS011;65257;52.104;4.268;2022-11-20T07:00:53;17.25;;;8.82;;
76423;SDS011;65257;52.104;4.268;2022-11-20T07:03:25;16.92;;;9.52;;
76423;SDS011;65257;52.104;4.268;2022-11-20T07:05:50;17.55;;;8.68;;
76423;SDS011;65257;52.104;4.268;2022-11-20T07:08:18;17.35;;;8.43;;
76423;SDS011;65257;52.104;4.268;2022-11-20T07:10:44;18.00;;;8.45;;
76423;SDS011;65257;52.104;4.268;2022-11-20T07:13:12;17.95;;;8.32;;
76423;SDS011;65257;52.104;4.268;2022-11-20T07:15:43;15.65;;;8.77;;
76423;SDS011;65257;52.104;4.268;2022-11-20T07:18:16;15.20;;;8.63;;
76423;SDS011;65257;52.104;4.268;2022-11-20T07:23:09;19.10;;;8.20;;
76423;SDS011;65257;52.104;4.268;2022-11-20T07:25:34;18.98;;;9.23;;
76423;SDS011;65257;52.104;4.268;2022-11-20T07:28:01;18.40;;;9.23;;
76423;SDS011;65257;52.104;4.268;2022-11-20T07:30:27;16.70;;;8.30;;
76423;SDS011;65257;52.104;4.268;2022-11-20T07:32:53;18.60;;;9.18;;
76423;SDS011;65257;52.104;4.268;2022-11-20T07:35:20;18.42;;;9.77;;
76423;SDS011;65257;52.104;4.268;2022-11-20T07:37:46;17.05;;;8.43;;
76423;SDS011;65257;52.104;4.268;2022-11-20T07:40:13;17.50;;;9.38;;
76423;SDS011;65257;52.104;4.268;2022-11-20T07:42:41;20.40;;;10.18;;
76423;SDS011;65257;52.104;4.268;2022-11-20T07:45:12;17.70;;;8.93;;
76423;SDS011;65257;52.104;4.268;2022-11-20T07:47:37;18.35;;;9.48;;
76423;SDS011;65257;52.104;4.268;2022-11-20T07:50:03;17.50;;;8.18;;
76423;SDS011;65257;52.104;4.268;2022-11-20T07:52:32;18.20;;;9.02;;
76423;SDS011;65257;52.104;4.268;2022-11-20T07:54:57;19.50;;;9.85;;
76423;SDS011;65257;52.104;4.268;2022-11-20T07:57:31;18.70;;;9.95;;
76423;SDS011;65257;52.104;4.268;2022-11-20T08:00:00;17.38;;;9.60;;
76423;SDS011;65257;52.104;4.268;2022-11-20T08:02:29;20.00;;;9.23;;
76423;SDS011;65257;52.104;4.268;2022-11-20T08:04:57;20.33;;;10.95;;
76423;SDS011;65257;52.104;4.268;2022-11-20T08:07:26;17.52;;;9.50;;
76423;SDS011;65257;52.104;4.268;2022-11-20T08:09:54;19.95;;;9.77;;
76423;SDS011;65257;52.104;4.268;2022-11-20T08:12:22;21.83;;;10.50;;
76423;SDS011;65257;52.104;4.268;2022-11-20T08:15:09;22.05;;;9.70;;
76423;SDS011;65257;52.104;4.268;2022-11-20T08:17:35;19.45;;;10.43;;
76423;SDS011;65257;52.104;4.268;2022-11-20T08:20:00;19.70;;;9.75;;
76423;SDS011;65257;52.104;4.268;2022-11-20T08:22:25;19.33;;;9.70;;
76423;SDS011;65257;52.104;4.268;2022-11-20T08:24:51;22.90;;;11.88;;
76423;SDS011;65257;52.104;4.268;2022-11-20T08:27:16;19.25;;;9.88;;
76423;SDS011;65257;52.104;4.268;2022-11-20T08:29:45;20.85;;;10.05;;
76423;SDS011;65257;52.104;4.268;2022-11-20T08:32:10;18.27;;;9.80;;
76423;SDS011;65257;52.104;4.268;2022-11-20T08:34:35;22.63;;;10.52;;
76423;SDS011;65257;52.104;4.268;2022-11-20T08:37:01;21.02;;;11.02;;
76423;SDS011;65257;52.104;4.268;2022-11-20T08:39:27;18.85;;;9.15;;
76423;SDS011;65257;52.104;4.268;2022-11-20T08:41:52;20.20;;;10.02;;
76423;SDS011;65257;52.104;4.268;2022-11-20T08:44:19;16.60;;;10.48;;
76423;SDS011;65257;52.104;4.268;2022-11-20T08:46:51;20.10;;;9.50;;
76423;SDS011;65257;52.104;4.268;2022-11-20T08:49:16;22.92;;;10.30;;
76423;SDS011;65257;52.104;4.268;2022-11-20T08:51:42;20.05;;;10.07;;
76423;SDS011;65257;52.104;4.268;2022-11-20T08:54:09;21.35;;;11.13;;
76423;SDS011;65257;52.104;4.268;2022-11-20T08:56:34;22.65;;;11.70;;
76423;SDS011;65257;52.104;4.268;2022-11-20T08:59:00;22.23;;;10.35;;
76423;SDS011;65257;52.104;4.268;2022-11-20T09:01:29;25.52;;;11.35;;
76423;SDS011;65257;52.104;4.268;2022-11-20T09:03:55;23.50;;;11.55;;
76423;SDS011;65257;52.104;4.268;2022-11-20T09:06:25;21.00;;;10.65;;
76423;SDS011;65257;52.104;4.268;2022-11-20T09:08:51;19.52;;;9.73;;
76423;SDS011;65257;52.104;4.268;2022-11-20T09:11:20;19.67;;;10.63;;
76423;SDS011;65257;52.104;4.268;2022-11-20T09:13:46;21.23;;;11.00;;
76423;SDS011;65257;52.104;4.268;2022-11-20T09:16:12;21.77;;;10.90;;
76423;SDS011;65257;52.104;4.268;2022-11-20T09:18:37;24.05;;;12.02;;
76423;SDS011;65257;52.104;4.268;2022-11-20T09:21:10;21.40;;;12.43;;
76423;SDS011;65257;52.104;4.268;2022-11-20T09:23:38;21.65;;;10.13;;
76423;SDS011;65257;52.104;4.268;2022-11-20T09:26:05;22.42;;;11.80;;
76423;SDS011;65257;52.104;4.268;2022-11-20T09:28:40;22.50;;;12.23;;
76423;SDS011;65257;52.104;4.268;2022-11-20T09:31:24;22.38;;;12.00;;
76423;SDS011;65257;52.104;4.268;2022-11-20T09:33:51;26.30;;;12.80;;
76423;SDS011;65257;52.104;4.268;2022-11-20T09:36:17;26.63;;;12.25;;
76423;SDS011;65257;52.104;4.268;2022-11-20T09:38:47;26.63;;;12.80;;
76423;SDS011;65257;52.104;4.268;2022-11-20T09:41:28;23.98;;;12.13;;
76423;SDS011;65257;52.104;4.268;2022-11-20T09:52:54;26.17;;;11.68;;
76423;SDS011;65257;52.104;4.268;2022-11-20T09:55:25;28.73;;;11.82;;
76423;SDS011;65257;52.104;4.268;2022-11-20T09:57:52;24.58;;;11.55;;
76423;SDS011;65257;52.104;4.268;2022-11-20T10:00:19;25.30;;;11.57;;
76423;SDS011;65257;52.104;4.268;2022-11-20T10:02:52;22.48;;;12.02;;
76423;SDS011;65257;52.104;4.268;2022-11-20T10:05:47;27.00;;;12.65;;
76423;SDS011;65257;52.104;4.268;2022-11-20T10:08:19;33.00;;;14.45;;
76423;SDS011;65257;52.104;4.268;2022-11-20T10:12:09;25.10;;;11.85;;
76423;SDS011;65257;52.104;4.268;2022-11-20T10:14:38;27.80;;;14.02;;
76423;SDS011;65257;52.104;4.268;2022-11-20T10:23:03;31.98;;;14.00;;
76423;SDS011;65257;52.104;4.268;2022-11-20T10:28:38;21.10;;;11.20;;
76423;SDS011;65257;52.104;4.268;2022-11-20T10:34:20;35.85;;;15.95;;
76423;SDS011;65257;52.104;4.268;2022-11-20T10:36:52;33.13;;;14.82;;
76423;SDS011;65257;52.104;4.268;2022-11-20T10:39:45;33.53;;;14.60;;
76423;SDS011;65257;52.104;4.268;2022-11-20T10:45:18;27.02;;;14.65;;
76423;SDS011;65257;52.104;4.268;2022-11-20T10:47:48;31.48;;;13.30;;
76423;SDS011;65257;52.104;4.268;2022-11-20T10:50:15;32.28;;;15.25;;
76423;SDS011;65257;52.104;4.268;2022-11-20T10:57:51;29.77;;;14.40;;
76423;SDS011;65257;52.104;4.268;2022-11-20T11:00:20;31.30;;;16.08;;
76423;SDS011;65257;52.104;4.268;2022-11-20T11:02:55;31.27;;;14.82;;
76423;SDS011;65257;52.104;4.268;2022-11-20T11:08:39;32.78;;;14.75;;
76423;SDS011;65257;52.104;4.268;2022-11-20T11:13:53;27.38;;;14.75;;
76423;SDS011;65257;52.104;4.268;2022-11-20T11:16:50;26.13;;;14.27;;
76423;SDS011;65257;52.104;4.268;2022-11-20T11:19:19;28.30;;;13.68;;
76423;SDS011;65257;52.104;4.268;2022-11-20T11:22:03;29.02;;;14.18;;
76423;SDS011;65257;52.104;4.268;2022-11-20T11:24:43;28.45;;;14.80;;
76423;SDS011;65257;52.104;4.268;2022-11-20T11:27:17;30.08;;;14.30;;
76423;SDS011;65257;52.104;4.268;2022-11-20T11:29:42;32.60;;;16.50;;
76423;SDS011;65257;52.104;4.268;2022-11-20T11:32:18;24.15;;;10.77;;
76423;SDS011;65257;52.104;4.268;2022-11-20T11:37:46;32.42;;;16.90;;
76423;SDS011;65257;52.104;4.268;2022-11-20T11:40:13;30.77;;;15.65;;
76423;SDS011;65257;52.104;4.268;2022-11-20T11:42:44;27.08;;;13.18;;
76423;SDS011;65257;52.104;4.268;2022-11-20T11:45:16;32.50;;;16.50;;
76423;SDS011;65257;52.104;4.268;2022-11-20T11:55:44;29.80;;;15.13;;
76423;SDS011;65257;52.104;4.268;2022-11-20T12:00:51;31.15;;;15.73;;
76423;SDS011;65257;52.104;4.268;2022-11-20T12:03:39;28.08;;;16.05;;
76423;SDS011;65257;52.104;4.268;2022-11-20T12:06:11;35.05;;;14.70;;
76423;SDS011;65257;52.104;4.268;2022-11-20T12:11:43;29.83;;;14.80;;
76423;SDS011;65257;52.104;4.268;2022-11-20T12:14:48;32.25;;;15.38;;
76423;SDS011;65257;52.104;4.268;2022-11-20T12:17:11;31.45;;;14.95;;
76423;SDS011;65257;52.104;4.268;2022-11-20T12:19:38;36.28;;;16.10;;
76423;SDS011;65257;52.104;4.268;2022-11-20T12:31:13;34.05;;;16.42;;
76423;SDS011;65257;52.104;4.268;2022-11-20T12:37:08;32.67;;;15.57;;
76423;SDS011;65257;52.104;4.268;2022-11-20T12:39:56;31.85;;;15.80;;
76423;SDS011;65257;52.104;4.268;2022-11-20T12:56:40;39.53;;;17.58;;
76423;SDS011;65257;52.104;4.268;2022-11-20T13:05:45;42.88;;;19.33;;
76423;SDS011;65257;52.104;4.268;2022-11-20T13:08:14;36.42;;;19.25;;
76423;SDS011;65257;52.104;4.268;2022-11-20T13:11:09;48.50;;;21.13;;
76423;SDS011;65257;52.104;4.268;2022-11-20T13:16:59;45.15;;;20.25;;
76423;SDS011;65257;52.104;4.268;2022-11-20T13:19:49;40.88;;;19.77;;
76423;SDS011;65257;52.104;4.268;2022-11-20T13:25:33;47.28;;;21.27;;
76423;SDS011;65257;52.104;4.268;2022-11-20T13:27:59;56.10;;;22.52;;
76423;SDS011;65257;52.104;4.268;2022-11-20T13:30:29;45.38;;;20.40;;
76423;SDS011;65257;52.104;4.268;2022-11-20T13:33:05;46.95;;;20.60;;
76423;SDS011;65257;52.104;4.268;2022-11-20T13:35:40;47.08;;;20.00;;
76423;SDS011;65257;52.104;4.268;2022-11-20T13:38:12;41.83;;;19.70;;
76423;SDS011;65257;52.104;4.268;2022-11-20T13:40:58;41.33;;;19.02;;
76423;SDS011;65257;52.104;4.268;2022-11-20T13:43:48;47.45;;;19.20;;
76423;SDS011;65257;52.104;4.268;2022-11-20T13:46:16;52.30;;;21.10;;
76423;SDS011;65257;52.104;4.268;2022-11-20T13:48:49;37.00;;;18.52;;
76423;SDS011;65257;52.104;4.268;2022-11-20T13:56:54;52.10;;;22.08;;
76423;SDS011;65257;52.104;4.268;2022-11-20T14:00:02;47.20;;;19.55;;
76423;SDS011;65257;52.104;4.268;2022-11-20T14:02:39;47.15;;;21.95;;
76423;SDS011;65257;52.104;4.268;2022-11-20T14:05:06;56.58;;;23.30;;
76423;SDS011;65257;52.104;4.268;2022-11-20T14:07:50;49.88;;;22.52;;
76423;SDS011;65257;52.104;4.268;2022-11-20T14:10:20;48.97;;;22.10;;
76423;SDS011;65257;52.104;4.268;2022-11-20T14:13:09;56.03;;;23.48;;
76423;SDS011;65257;52.104;4.268;2022-11-20T14:15:56;52.88;;;21.83;;
76423;SDS011;65257;52.104;4.268;2022-11-20T14:18:54;53.70;;;23.70;;
76423;SDS011;65257;52.104;4.268;2022-11-20T14:21:21;57.45;;;20.58;;
76423;SDS011;65257;52.104;4.268;2022-11-20T14:23:51;54.15;;;23.30;;
76423;SDS011;65257;52.104;4.268;2022-11-20T14:26:33;48.42;;;21.77;;
76423;SDS011;65257;52.104;4.268;2022-11-20T14:29:33;52.40;;;21.20;;
76423;SDS011;65257;52.104;4.268;2022-11-20T14:32:05;53.80;;;23.52;;
76423;SDS011;65257;52.104;4.268;2022-11-20T14:34:33;49.75;;;21.52;;
76423;SDS011;65257;52.104;4.268;2022-11-20T14:37:13;45.60;;;19.75;;
76423;SDS011;65257;52.104;4.268;2022-11-20T14:39:52;45.67;;;21.73;;
76423;SDS011;65257;52.104;4.268;2022-11-20T14:42:32;54.67;;;22.85;;
76423;SDS011;65257;52.104;4.268;2022-11-20T14:45:01;55.15;;;22.20;;
76423;SDS011;65257;52.104;4.268;2022-11-20T14:47:31;49.10;;;22.80;;
76423;SDS011;65257;52.104;4.268;2022-11-20T14:50:01;63.67;;;24.63;;
76423;SDS011;65257;52.104;4.268;2022-11-20T14:52:58;57.05;;;23.63;;
76423;SDS011;65257;52.104;4.268;2022-11-20T14:55:27;56.85;;;21.38;;
76423;SDS011;65257;52.104;4.268;2022-11-20T15:01:07;63.30;;;23.50;;
76423;SDS011;65257;52.104;4.268;2022-11-20T15:03:42;66.57;;;27.98;;
76423;SDS011;65257;52.104;4.268;2022-11-20T15:06:11;60.40;;;24.52;;
76423;SDS011;65257;52.104;4.268;2022-11-20T15:08:51;43.53;;;19.08;;
76423;SDS011;65257;52.104;4.268;2022-11-20T15:11:29;55.08;;;21.75;;
76423;SDS011;65257;52.104;4.268;2022-11-20T15:14:03;48.47;;;18.35;;
76423;SDS011;65257;52.104;4.268;2022-11-20T15:16:34;34.00;;;16.38;;
76423;SDS011;65257;52.104;4.268;2022-11-20T15:19:15;34.92;;;16.67;;
76423;SDS011;65257;52.104;4.268;2022-11-20T15:21:48;34.42;;;15.18;;
76423;SDS011;65257;52.104;4.268;2022-11-20T15:24:18;35.15;;;17.30;;
76423;SDS011;65257;52.104;4.268;2022-11-20T15:26:54;35.75;;;17.08;;
76423;SDS011;65257;52.104;4.268;2022-11-20T15:29:53;27.83;;;15.23;;
76423;SDS011;65257;52.104;4.268;2022-11-20T15:32:22;40.28;;;17.77;;
76423;SDS011;65257;52.104;4.268;2022-11-20T15:34:54;37.17;;;17.35;;
76423;SDS011;65257;52.104;4.268;2022-11-20T15:37:33;31.80;;;15.70;;
76423;SDS011;65257;52.104;4.268;2022-11-20T15:40:27;35.67;;;15.57;;
76423;SDS011;65257;52.104;4.268;2022-11-20T15:42:55;30.45;;;14.85;;
76423;SDS011;65257;52.104;4.268;2022-11-20T15:45:46;32.08;;;14.70;;
76423;SDS011;65257;52.104;4.268;2022-11-20T15:48:26;32.13;;;16.25;;
76423;SDS011;65257;52.104;4.268;2022-11-20T15:54:15;29.90;;;15.20;;
76423;SDS011;65257;52.104;4.268;2022-11-20T15:57:05;29.17;;;15.68;;
76423;SDS011;65257;52.104;4.268;2022-11-20T15:59:33;27.65;;;13.43;;
76423;SDS011;65257;52.104;4.268;2022-11-20T16:02:12;30.63;;;15.32;;
76423;SDS011;65257;52.104;4.268;2022-11-20T16:04:44;30.17;;;14.52;;
76423;SDS011;65257;52.104;4.268;2022-11-20T16:07:29;36.28;;;18.38;;
76423;SDS011;65257;52.104;4.268;2022-11-20T16:09:58;40.25;;;19.13;;
76423;SDS011;65257;52.104;4.268;2022-11-20T16:12:33;33.38;;;16.60;;
76423;SDS011;65257;52.104;4.268;2022-11-20T16:15:24;32.20;;;15.60;;
76423;SDS011;65257;52.104;4.268;2022-11-20T16:18:14;28.85;;;14.80;;
76423;SDS011;65257;52.104;4.268;2022-11-20T16:21:29;29.30;;;13.95;;
76423;SDS011;65257;52.104;4.268;2022-11-20T16:24:08;36.08;;;18.58;;
76423;SDS011;65257;52.104;4.268;2022-11-20T16:26:42;30.67;;;15.07;;
76423;SDS011;65257;52.104;4.268;2022-11-20T16:29:11;26.15;;;12.80;;
76423;SDS011;65257;52.104;4.268;2022-11-20T16:31:49;32.55;;;17.30;;
76423;SDS011;65257;52.104;4.268;2022-11-20T16:34:50;33.90;;;17.83;;
76423;SDS011;65257;52.104;4.268;2022-11-20T16:37:20;34.13;;;17.33;;
76423;SDS011;65257;52.104;4.268;2022-11-20T16:40:11;33.42;;;15.90;;
76423;SDS011;65257;52.104;4.268;2022-11-20T16:43:22;28.00;;;15.75;;
76423;SDS011;65257;52.104;4.268;2022-11-20T16:45:52;27.15;;;15.35;;
76423;SDS011;65257;52.104;4.268;2022-11-20T16:48:21;32.78;;;16.65;;
76423;SDS011;65257;52.104;4.268;2022-11-20T16:50:47;35.45;;;18.58;;
76423;SDS011;65257;52.104;4.268;2022-11-20T16:53:16;32.28;;;16.55;;
76423;SDS011;65257;52.104;4.268;2022-11-20T16:55:53;33.22;;;17.35;;